createdAt,value
2022-09-05T00:01:44.063Z,3.87
2022-09-05T00:04:24.538Z,3.83
2022-09-05T00:07:03.550Z,3.77
2022-09-05T00:10:06.288Z,4.13
2022-09-05T00:12:36.910Z,3.60
2022-09-05T00:15:24.601Z,3.90
2022-09-05T00:22:52.650Z,3.97
2022-09-05T00:24:32.277Z,4.20
2022-09-05T00:25:07.212Z,4.90
2022-09-05T00:27:50.792Z,4.57
2022-09-05T00:31:07.140Z,5.07
2022-09-05T00:33:26.090Z,3.83
2022-09-05T00:36:24.403Z,4.47
2022-09-05T00:39:01.501Z,4.90
2022-09-05T00:41:34.187Z,4.60
2022-09-05T00:44:04.096Z,4.37
2022-09-05T00:46:38.050Z,4.63
2022-09-05T00:49:21.331Z,4.67
2022-09-05T00:51:56.218Z,4.23
2022-09-05T00:54:45.540Z,4.67
2022-09-05T00:57:50.910Z,4.30
2022-09-05T01:00:22.782Z,4.40
2022-09-05T01:03:28.656Z,4.07
2022-09-05T01:06:17.362Z,4.27
2022-09-05T01:09:22.260Z,5.37
2022-09-05T01:12:03.769Z,4.60
2022-09-05T01:14:51.659Z,5.57
2022-09-05T01:17:34.824Z,5.40
2022-09-05T01:20:31.524Z,4.83
2022-09-05T01:23:39.979Z,5.00
2022-09-05T01:26:48.127Z,5.50
2022-09-05T01:29:26.585Z,6.73
2022-09-05T01:32:15.354Z,5.93
2022-09-05T01:35:02.545Z,5.70
2022-09-05T01:37:39.673Z,6.10
2022-09-05T01:40:25.198Z,6.10
2022-09-05T01:43:11.777Z,4.80
2022-09-05T01:45:52.123Z,4.97
2022-09-05T01:48:35.093Z,5.47
2022-09-05T01:51:29.236Z,4.83
2022-09-05T01:54:24.379Z,5.80
2022-09-05T01:57:16.137Z,4.93
2022-09-05T01:59:56.857Z,5.30
2022-09-05T02:02:50.586Z,5.43
2022-09-05T02:05:49.167Z,5.10
2022-09-05T02:08:41.738Z,5.00
2022-09-05T02:11:13.577Z,4.93
2022-09-05T02:13:57.440Z,5.37
2022-09-05T02:16:34.152Z,5.40
2022-09-05T02:19:14.847Z,5.77
2022-09-05T02:21:57.490Z,5.20
2022-09-05T02:24:37.182Z,5.60
2022-09-05T02:27:48.924Z,4.90
2022-09-05T02:30:19.716Z,6.07
2022-09-05T02:33:03.251Z,5.77
2022-09-05T02:35:46.929Z,5.17
2022-09-05T02:40:37.661Z,5.40
2022-09-05T02:45:12.792Z,5.60
2022-09-05T02:45:24.309Z,6.20
2022-09-05T02:47:15.976Z,6.30
2022-09-05T02:52:24.702Z,6.00
2022-09-05T02:57:39.225Z,6.77
2022-09-05T02:57:42.130Z,6.00
2022-09-05T02:59:37.130Z,7.07
2022-09-05T03:02:26.219Z,6.60
2022-09-05T03:05:07.709Z,7.60
2022-09-05T03:08:14.419Z,6.87
2022-09-05T03:11:44.904Z,6.87
2022-09-05T03:15:24.303Z,7.00
2022-09-05T03:18:34.315Z,7.20
2022-09-05T03:21:41.425Z,7.30
2022-09-05T03:24:56.043Z,7.37
2022-09-05T03:28:25.055Z,6.43
2022-09-05T03:31:22.197Z,6.33
2022-09-05T03:34:36.256Z,6.57
2022-09-05T03:37:47.024Z,6.90
2022-09-05T03:40:58.305Z,7.03
2022-09-05T03:44:04.860Z,7.73
2022-09-05T03:47:14.817Z,7.20
2022-09-05T03:57:04.295Z,6.97
2022-09-05T03:57:14.939Z,7.50
2022-09-05T03:57:32.288Z,6.90
2022-09-05T04:00:09.654Z,7.40
2022-09-05T04:07:01.985Z,7.20
2022-09-05T04:08:16.079Z,7.17
2022-09-05T04:08:47.997Z,7.43
2022-09-05T04:11:31.819Z,8.20
2022-09-05T04:14:06.298Z,6.83
2022-09-05T04:16:49.851Z,7.40
2022-09-05T04:19:29.427Z,7.27
2022-09-05T04:22:10.310Z,7.83
2022-09-05T04:24:46.515Z,7.90
2022-09-05T04:27:36.812Z,7.83
2022-09-05T04:30:39.561Z,6.97
2022-09-05T04:33:23.410Z,8.20
2022-09-05T04:36:24.968Z,7.83
2022-09-05T04:39:24.651Z,8.77
2022-09-05T04:41:56.662Z,7.37
2022-09-05T04:44:31.653Z,7.40
2022-09-05T04:47:09.848Z,7.83
2022-09-05T04:49:52.822Z,8.43
2022-09-05T04:53:10.340Z,7.27
2022-09-05T04:55:50.833Z,6.73
2022-09-05T05:00:06.217Z,8.30
2022-09-05T05:06:01.409Z,7.30
2022-09-05T05:06:23.804Z,8.83
2022-09-05T05:07:18.384Z,7.13
2022-09-05T05:10:22.108Z,6.60
2022-09-05T05:17:56.908Z,7.93
2022-09-05T05:18:12.507Z,7.90
2022-09-05T05:18:59.987Z,7.80
2022-09-05T05:21:37.640Z,7.80
2022-09-05T05:24:14.295Z,8.30
2022-09-05T05:26:57.897Z,8.40
2022-09-05T05:29:34.615Z,7.80
2022-09-05T05:32:07.989Z,7.30
2022-09-05T05:34:42.533Z,9.17
2022-09-05T05:37:22.122Z,9.67
2022-09-05T05:40:00.964Z,8.93
2022-09-05T05:42:29.267Z,7.70
2022-09-05T05:44:59.837Z,7.80
2022-09-05T05:47:32.776Z,8.50
2022-09-05T05:50:11.412Z,8.53
2022-09-05T05:53:30.400Z,7.30
2022-09-05T05:56:40.302Z,8.00
2022-09-05T05:59:56.439Z,6.87
2022-09-05T06:03:33.705Z,9.03
2022-09-05T06:06:33.096Z,8.10
2022-09-05T06:14:47.942Z,7.37
2022-09-05T06:15:05.587Z,7.70
2022-09-05T06:17:05.486Z,7.57
2022-09-05T06:22:04.172Z,8.57
2022-09-05T06:24:02.048Z,8.17
2022-09-05T06:27:21.234Z,8.07
2022-09-05T06:30:00.949Z,7.83
2022-09-05T06:32:56.703Z,7.13
2022-09-05T06:35:38.436Z,7.73
2022-09-05T06:38:29.005Z,8.00
2022-09-05T06:41:20.751Z,7.43
2022-09-05T06:44:31.081Z,7.80
2022-09-05T06:47:24.217Z,7.87
2022-09-05T06:50:26.642Z,7.20
2022-09-05T06:53:44.741Z,7.97
2022-09-05T06:56:39.301Z,7.80
2022-09-05T06:59:59.067Z,7.90
2022-09-05T07:02:59.259Z,8.07
2022-09-05T07:05:42.853Z,8.63
2022-09-05T07:08:36.066Z,8.63
2022-09-05T07:11:16.608Z,9.10
2022-09-05T07:13:57.690Z,8.90
2022-09-05T07:16:41.895Z,7.40
2022-09-05T07:19:34.850Z,7.67
2022-09-05T07:22:46.700Z,7.10
2022-09-05T07:25:26.231Z,7.30
2022-09-05T07:28:29.077Z,6.93
2022-09-05T07:30:51.899Z,7.17
2022-09-05T07:33:28.247Z,6.07
2022-09-05T07:36:04.969Z,6.50
2022-09-05T07:38:52.309Z,5.97
2022-09-05T07:41:26.868Z,6.10
2022-09-05T07:44:00.268Z,5.60
2022-09-05T07:46:33.529Z,5.70
2022-09-05T07:49:07.223Z,5.10
2022-09-05T07:56:49.625Z,4.07
2022-09-05T07:57:06.383Z,3.80
2022-09-05T07:57:31.622Z,3.57
2022-09-05T08:00:25.976Z,3.13
2022-09-05T08:03:01.891Z,3.57
2022-09-05T08:05:42.344Z,2.97
2022-09-05T08:08:15.172Z,3.00
2022-09-05T08:11:22.019Z,3.03
2022-09-05T08:14:38.346Z,3.00
2022-09-05T08:16:46.966Z,2.60
2022-09-05T08:19:54.293Z,2.90
2022-09-05T08:22:35.723Z,2.30
2022-09-05T08:25:15.407Z,3.07
2022-09-05T08:28:01.918Z,2.83
2022-09-05T08:30:33.872Z,2.77
2022-09-05T08:33:11.378Z,2.70
2022-09-05T08:35:45.318Z,3.70
2022-09-05T08:38:17.319Z,3.10
2022-09-05T08:40:56.072Z,2.80
2022-09-05T08:46:38.031Z,2.53
2022-09-05T08:46:48.351Z,2.47
2022-09-05T08:49:46.505Z,2.60
2022-09-05T08:52:28.016Z,2.30
2022-09-05T08:55:10.426Z,2.40
2022-09-05T08:58:25.447Z,2.20
2022-09-05T09:01:04.791Z,2.07
2022-09-05T09:03:53.220Z,2.33
2022-09-05T09:06:58.015Z,2.50
2022-09-05T09:09:50.754Z,2.43
2022-09-05T09:13:05.408Z,1.90
2022-09-05T09:15:40.231Z,2.40
2022-09-05T09:18:16.312Z,2.10
2022-09-05T09:20:53.177Z,2.00
2022-09-05T09:23:44.837Z,2.20
2022-09-05T09:26:17.110Z,2.07
2022-09-05T09:28:53.814Z,2.20
2022-09-05T09:32:06.069Z,2.17
2022-09-05T09:35:21.338Z,2.40
2022-09-05T09:38:30.898Z,2.20
2022-09-05T09:41:33.182Z,2.10
2022-09-05T09:45:27.471Z,2.20
2022-09-05T09:48:55.974Z,2.10
2022-09-05T09:51:55.628Z,2.40
2022-09-05T09:55:46.335Z,1.70
2022-09-05T09:58:49.414Z,2.20
2022-09-05T10:01:36.056Z,1.50
2022-09-05T10:10:37.742Z,1.80
2022-09-05T10:10:55.125Z,2.20
2022-09-05T10:11:55.505Z,1.73
2022-09-05T10:15:15.142Z,1.60
2022-09-05T10:18:32.737Z,1.77
2022-09-05T10:21:24.746Z,1.80
2022-09-05T10:24:24.814Z,1.50
2022-09-05T10:27:36.920Z,1.87
2022-09-05T10:30:33.398Z,1.37
2022-09-05T10:35:16.997Z,1.60
2022-09-05T10:36:31.358Z,1.63
2022-09-05T10:39:19.072Z,1.70
2022-09-05T10:41:57.219Z,1.40
2022-09-05T10:44:40.463Z,1.60
2022-09-05T10:47:24.945Z,1.50
2022-09-05T10:50:05.447Z,1.83
2022-09-05T10:52:57.572Z,2.00
2022-09-05T10:55:31.216Z,1.50
2022-09-05T10:58:11.834Z,1.47
2022-09-05T11:02:28.058Z,1.67
2022-09-05T11:04:04.143Z,1.40
2022-09-05T11:06:53.809Z,1.63
2022-09-05T11:09:56.055Z,1.63
2022-09-05T11:12:41.447Z,1.77
2022-09-05T11:15:25.364Z,1.50
2022-09-05T11:17:58.852Z,1.30
2022-09-05T11:21:01.904Z,1.57
2022-09-05T11:23:40.120Z,1.73
2022-09-05T11:26:34.500Z,1.60
2022-09-05T11:29:08.886Z,1.53
2022-09-05T11:33:35.915Z,1.63
2022-09-05T11:39:52.514Z,1.50
2022-09-05T11:39:55.489Z,1.10
2022-09-05T11:42:12.501Z,1.50
2022-09-05T11:45:15.879Z,1.40
2022-09-05T11:48:18.880Z,1.70
2022-09-05T11:51:38.851Z,1.50
2022-09-05T11:55:03.493Z,1.30
2022-09-05T11:57:50.287Z,1.53
2022-09-05T12:00:31.515Z,1.27
2022-09-05T12:03:58.900Z,1.60
2022-09-05T12:07:15.585Z,1.37
2022-09-05T12:10:39.843Z,2.00
2022-09-05T12:13:21.767Z,1.80
2022-09-05T12:16:08.248Z,1.60
2022-09-05T12:18:54.221Z,1.80
2022-09-05T12:21:38.229Z,1.60
2022-09-05T12:25:25.460Z,1.80
2022-09-05T12:27:43.795Z,1.93
2022-09-05T12:30:06.446Z,1.63
2022-09-05T12:33:52.385Z,1.83
2022-09-05T12:36:10.066Z,1.50
2022-09-05T12:40:55.325Z,1.80
2022-09-05T12:42:15.103Z,1.47
2022-09-05T12:45:03.013Z,1.60
2022-09-05T12:47:44.487Z,1.80
2022-09-05T12:50:18.027Z,1.57
2022-09-05T12:52:51.457Z,1.70
2022-09-05T12:55:27.753Z,1.50
2022-09-05T13:01:41.986Z,1.80
2022-09-05T13:03:12.926Z,1.80
2022-09-05T13:04:16.682Z,1.40
2022-09-05T13:06:47.008Z,2.40
2022-09-05T13:09:55.348Z,1.57
2022-09-05T13:14:56.583Z,1.70
2022-09-05T13:15:23.333Z,1.60
2022-09-05T13:18:02.886Z,1.67
2022-09-05T13:20:36.528Z,2.00
2022-09-05T13:23:18.811Z,1.83
2022-09-05T13:25:57.950Z,1.70
2022-09-05T13:28:35.299Z,1.40
2022-09-05T13:37:55.710Z,1.80
2022-09-05T13:38:05.802Z,1.40
2022-09-05T13:38:10.024Z,1.60
2022-09-05T13:39:55.913Z,2.40
2022-09-05T13:42:30.388Z,1.87
2022-09-05T13:45:01.526Z,1.90
2022-09-05T13:48:02.346Z,1.70
2022-09-05T13:50:38.093Z,1.93
2022-09-05T13:53:16.670Z,1.60
2022-09-05T13:55:54.807Z,2.00
2022-09-05T13:58:39.858Z,1.60
2022-09-05T14:02:24.657Z,1.93
2022-09-05T14:05:19.543Z,1.63
2022-09-05T14:11:57.180Z,1.97
2022-09-05T14:17:54.191Z,1.80
2022-09-05T14:20:43.237Z,2.30
2022-09-05T14:23:15.488Z,1.70
2022-09-05T14:25:52.357Z,1.90
2022-09-05T14:28:27.764Z,1.73
2022-09-05T14:33:16.759Z,1.67
2022-09-05T14:37:48.279Z,1.60
2022-09-05T14:37:59.994Z,1.90
2022-09-05T14:41:19.084Z,1.80
2022-09-05T14:44:21.250Z,2.30
2022-09-05T14:47:35.425Z,1.80
2022-09-05T14:50:39.285Z,2.10
2022-09-05T14:57:41.372Z,1.60
2022-09-05T15:02:51.034Z,1.67
2022-09-05T15:02:53.942Z,2.10
2022-09-05T15:05:38.801Z,2.03
2022-09-05T15:09:11.439Z,1.73
2022-09-05T15:12:18.911Z,1.70
2022-09-05T15:13:58.800Z,1.70
2022-09-05T15:16:29.081Z,2.00
2022-09-05T15:18:58.429Z,1.90
2022-09-05T15:21:33.707Z,1.93
2022-09-05T15:24:21.389Z,1.80
2022-09-05T15:26:53.781Z,1.70
2022-09-05T15:29:25.646Z,1.90
2022-09-05T15:32:13.966Z,2.37
2022-09-05T15:34:42.481Z,2.63
2022-09-05T15:37:26.624Z,1.60
2022-09-05T15:40:23.807Z,2.00
2022-09-05T15:42:56.621Z,1.97
2022-09-05T15:45:29.060Z,2.30
2022-09-05T15:48:12.807Z,1.97
2022-09-05T15:50:50.345Z,1.87
2022-09-05T15:53:25.880Z,2.20
2022-09-05T15:56:01.021Z,2.40
2022-09-05T15:58:52.675Z,2.57
2022-09-05T16:01:45.070Z,2.60
2022-09-05T16:08:45.786Z,2.20
2022-09-05T16:10:37.383Z,2.30
2022-09-05T16:10:41.442Z,2.20
2022-09-05T16:13:13.906Z,2.30
2022-09-05T16:20:04.530Z,2.53
2022-09-05T16:23:18.956Z,2.33
2022-09-05T16:23:29.340Z,2.50
2022-09-05T16:24:38.617Z,2.50
2022-09-05T16:27:54.388Z,2.50
2022-09-05T16:30:26.313Z,2.73
2022-09-05T16:33:01.591Z,2.37
2022-09-05T16:35:33.965Z,2.50
2022-09-05T16:38:48.641Z,2.43
2022-09-05T16:41:13.268Z,1.70
2022-09-05T16:43:47.712Z,1.83
2022-09-05T16:46:22.935Z,1.67
2022-09-05T16:48:58.729Z,1.93
2022-09-05T16:51:35.687Z,2.03
2022-09-05T16:54:13.401Z,1.87
2022-09-05T16:56:47.767Z,1.90
2022-09-05T16:59:19.234Z,2.07
2022-09-05T17:02:07.259Z,1.70
2022-09-05T17:05:04.619Z,1.63
2022-09-05T17:08:10.332Z,1.73
2022-09-05T17:10:57.516Z,1.90
2022-09-05T17:13:44.270Z,1.87
2022-09-05T17:16:21.826Z,2.00
2022-09-05T17:18:52.633Z,2.00
2022-09-05T17:21:51.426Z,1.90
2022-09-05T17:29:20.993Z,1.90
2022-09-05T17:29:35.094Z,2.27
2022-09-05T17:33:00.289Z,2.00
2022-09-05T17:35:55.041Z,3.07
2022-09-05T17:39:21.074Z,2.50
2022-09-05T17:42:29.198Z,2.30
2022-09-05T17:45:13.944Z,2.23
2022-09-05T17:47:49.987Z,2.23
2022-09-05T17:50:22.449Z,2.30
2022-09-05T17:53:26.800Z,2.40
2022-09-05T17:56:14.113Z,2.20
2022-09-05T17:59:07.137Z,2.40
2022-09-05T18:01:36.670Z,1.93
2022-09-05T18:04:16.496Z,2.20
2022-09-05T18:07:00.711Z,2.37
2022-09-05T18:10:12.907Z,2.43
2022-09-05T18:13:14.057Z,2.37
2022-09-05T18:16:13.282Z,2.50
2022-09-05T18:19:28.217Z,2.73
2022-09-05T18:21:53.119Z,2.80
2022-09-05T18:24:33.299Z,2.97
2022-09-05T18:30:11.238Z,3.20
2022-09-05T18:32:45.214Z,3.77
2022-09-05T18:35:37.656Z,3.37
2022-09-05T18:38:19.197Z,3.50
2022-09-05T18:41:21.723Z,3.60
2022-09-05T18:44:13.596Z,3.67
2022-09-05T18:46:47.256Z,4.47
2022-09-05T18:50:21.591Z,4.80
2022-09-05T18:52:23.236Z,4.30
2022-09-05T18:56:08.949Z,3.87
2022-09-05T18:57:51.976Z,4.60
2022-09-05T19:00:44.725Z,3.30
2022-09-05T19:03:24.916Z,2.67
2022-09-05T19:06:35.215Z,2.80
2022-09-05T19:08:56.088Z,2.77
2022-09-05T19:11:30.813Z,2.40
2022-09-05T19:14:26.273Z,2.40
2022-09-05T19:17:07.431Z,2.73
2022-09-05T19:20:31.766Z,2.60
2022-09-05T19:23:11.729Z,2.77
2022-09-05T19:25:44.025Z,2.30
2022-09-05T19:35:33.282Z,2.47
2022-09-05T19:37:08.355Z,2.07
2022-09-05T19:37:09.791Z,2.23
2022-09-05T19:43:48.400Z,2.03
2022-09-05T19:47:35.923Z,2.40
2022-09-05T19:47:51.475Z,2.17
2022-09-05T19:48:26.675Z,2.63
2022-09-05T19:50:57.599Z,2.67
2022-09-05T19:53:26.216Z,2.70
2022-09-05T19:55:56.160Z,2.47
2022-09-05T19:58:25.700Z,2.17
2022-09-05T20:01:08.399Z,2.07
2022-09-05T20:03:44.596Z,1.80
2022-09-05T20:06:28.816Z,1.73
2022-09-05T20:09:15.358Z,1.50
2022-09-05T20:11:50.046Z,2.00
2022-09-05T20:14:23.013Z,2.50
2022-09-05T20:16:54.342Z,3.07
2022-09-05T20:19:29.021Z,2.27
2022-09-05T20:22:21.208Z,2.60
2022-09-05T20:24:50.533Z,2.70
2022-09-05T20:27:27.386Z,2.83
2022-09-05T20:30:00.393Z,3.60
2022-09-05T20:32:39.543Z,3.70
2022-09-05T20:43:07.605Z,3.30
2022-09-05T20:43:22.467Z,3.93
2022-09-05T20:43:23.803Z,3.50
2022-09-05T20:44:22.656Z,4.20
2022-09-05T20:49:27.387Z,5.10
2022-09-05T20:54:19.758Z,5.50
2022-09-05T20:54:21.531Z,4.60
2022-09-05T20:55:42.441Z,5.27
2022-09-05T20:58:15.002Z,4.90
2022-09-05T21:01:21.014Z,5.03
2022-09-05T21:03:45.326Z,5.93
2022-09-05T21:06:22.635Z,6.07
2022-09-05T21:08:56.030Z,5.70
2022-09-05T21:11:33.781Z,6.53
2022-09-05T21:14:05.063Z,6.73
2022-09-05T21:16:49.387Z,5.80
2022-09-05T21:19:26.596Z,4.87
2022-09-05T21:22:06.695Z,4.40
2022-09-05T21:24:35.559Z,4.70
2022-09-05T21:27:22.587Z,4.97
2022-09-05T21:29:58.833Z,5.30
2022-09-05T21:32:38.127Z,4.77
2022-09-05T21:35:33.535Z,5.13
2022-09-05T21:38:01.590Z,4.40
2022-09-05T21:40:30.150Z,5.17
2022-09-05T21:46:38.650Z,4.27
2022-09-05T21:47:40.085Z,4.90
2022-09-05T21:48:39.374Z,4.70
2022-09-05T21:51:10.310Z,4.70
2022-09-05T21:58:55.224Z,4.27
2022-09-05T21:59:27.729Z,4.10
2022-09-05T21:59:40.085Z,5.37
2022-09-05T22:02:16.819Z,3.90
2022-09-05T22:04:47.133Z,3.67
2022-09-05T22:07:31.924Z,3.10
2022-09-05T22:10:03.485Z,2.50
2022-09-05T22:12:36.770Z,2.47
2022-09-05T22:15:26.411Z,2.60
2022-09-05T22:18:17.439Z,2.70
2022-09-05T22:21:31.634Z,2.73
2022-09-05T22:23:44.356Z,2.70
2022-09-05T22:26:13.637Z,3.03
2022-09-05T22:28:48.775Z,2.67
2022-09-05T22:31:17.592Z,3.13
2022-09-05T22:33:46.352Z,3.10
2022-09-05T22:36:20.856Z,2.60
2022-09-05T22:38:49.196Z,3.00
2022-09-05T22:41:17.622Z,3.17
2022-09-05T22:43:58.619Z,3.70
2022-09-05T22:46:27.033Z,3.30
2022-09-05T22:48:55.447Z,3.57
2022-09-05T22:51:25.172Z,3.17
2022-09-05T22:53:53.469Z,3.60
2022-09-05T22:56:32.312Z,2.90
2022-09-05T22:59:00.993Z,3.07
2022-09-05T23:01:29.386Z,2.70
2022-09-05T23:03:57.808Z,3.30
2022-09-05T23:06:27.689Z,3.20
2022-09-05T23:08:56.029Z,3.30
2022-09-05T23:11:24.482Z,2.60
2022-09-05T23:13:52.928Z,3.00
2022-09-05T23:16:21.686Z,3.60
2022-09-05T23:18:50.042Z,3.30
2022-09-05T23:21:19.812Z,3.67
2022-09-05T23:23:49.518Z,3.13
2022-09-05T23:26:18.266Z,3.10
2022-09-05T23:28:46.678Z,2.70
2022-09-05T23:31:15.113Z,3.30
2022-09-05T23:33:43.672Z,3.60
2022-09-05T23:36:14.641Z,2.90
2022-09-05T23:38:43.808Z,3.03
2022-09-05T23:41:15.850Z,3.30
2022-09-05T23:43:44.624Z,3.53
2022-09-05T23:46:13.366Z,3.40
2022-09-05T23:48:42.426Z,3.10
2022-09-05T23:51:12.720Z,2.90
2022-09-05T23:53:41.723Z,3.10
2022-09-05T23:56:12.154Z,2.80
2022-09-05T23:58:42.022Z,3.60
